Time;durP1;ratioP1;P1;durP2;ratioP2;P2;SDS_P1;SDS_P2;PMS_P1;PMS_P2;Temp;Humidity;BMP_temperature;BMP_pressure;BME280_temperature;BME280_humidity;BME280_pressure;Samples;Min_cycle;Max_cycle;Signal;HPM_P1;HPM_P2
2023/04/06 00:01:31;;;;;;;0.35;0.35;;;;;;;5.20;74.14;101275.97;4972554;28;20126;-55
2023/04/06 00:03:56;;;;;;;0.30;0.30;;;;;;;5.44;73.85;101266.56;4989192;28;20060;-54
2023/04/06 00:06:22;;;;;;;0.50;0.50;;;;;;;5.27;73.77;101260.31;5004782;28;20385;-53
2023/04/06 00:08:47;;;;;;;0.35;0.35;;;;;;;5.31;73.73;101267.41;4987454;28;20069;-51
2023/04/06 00:11:13;;;;;;;0.68;0.52;;;;;;;5.39;73.49;101264.03;5004344;28;20087;-49
2023/04/06 00:13:39;;;;;;;0.60;0.60;;;;;;;5.43;72.89;101270.34;4993018;28;20030;-60
2023/04/06 00:16:05;;;;;;;0.40;0.40;;;;;;;5.42;72.58;101263.41;5000157;28;20030;-50
2023/04/06 00:18:31;;;;;;;0.63;0.63;;;;;;;5.21;73.49;101250.84;4994112;28;20065;-54
2023/04/06 00:20:57;;;;;;;0.47;0.47;;;;;;;5.22;73.65;101261.25;4999245;28;20025;-50
2023/04/06 00:23:23;;;;;;;0.52;0.50;;;;;;;5.21;72.76;101258.84;4992670;28;20032;-58
2023/04/06 00:25:49;;;;;;;0.38;0.30;;;;;;;5.25;73.68;101259.81;4993350;28;20181;-47
2023/04/06 00:28:14;;;;;;;0.40;0.40;;;;;;;5.40;72.69;101246.88;4994420;28;20042;-46
2023/04/06 00:30:41;;;;;;;1.80;0.50;;;;;;;5.40;72.37;101251.47;4999576;28;20492;-55
2023/04/06 00:33:06;;;;;;;1.30;0.50;;;;;;;5.23;73.00;101241.44;4998802;28;20030;-46
2023/04/06 00:35:32;;;;;;;0.80;0.43;;;;;;;5.06;73.38;101241.34;4993456;28;20044;-48
2023/04/06 00:37:58;;;;;;;1.58;1.13;;;;;;;4.75;74.40;101248.44;5001966;28;20044;-53
2023/04/06 00:40:24;;;;;;;0.50;0.50;;;;;;;4.56;75.99;101242.47;4993921;28;20043;-57
2023/04/06 00:42:50;;;;;;;0.45;0.40;;;;;;;4.41;76.92;101240.16;4977587;28;20030;-51
2023/04/06 00:45:16;;;;;;;0.80;0.80;;;;;;;4.41;77.01;101237.47;4997865;28;20036;-55
2023/04/06 00:47:42;;;;;;;0.73;0.60;;;;;;;4.40;76.86;101230.56;5008499;28;20641;-51
2023/04/06 00:50:10;;;;;;;0.77;0.77;;;;;;;4.61;76.43;101229.03;4994656;28;20077;-49
2023/04/06 00:52:36;;;;;;;0.45;0.45;;;;;;;4.87;75.80;101230.03;4993159;28;20622;-48
2023/04/06 00:55:03;;;;;;;0.40;0.40;;;;;;;5.00;74.42;101237.19;4999008;28;20178;-52
2023/04/06 00:57:32;;;;;;;1.83;0.55;;;;;;;4.98;75.09;101233.25;4993649;28;20122;-46
2023/04/06 00:59:58;;;;;;;1.35;0.77;;;;;;;4.69;76.06;101241.66;4994710;28;20029;-47
2023/04/06 01:02:25;;;;;;;7.82;0.60;;;;;;;4.78;75.36;101223.81;4995303;28;20026;-56
2023/04/06 01:04:54;;;;;;;0.68;0.68;;;;;;;4.93;75.31;101228.03;4996473;28;20064;-48
2023/04/06 01:07:26;;;;;;;0.65;0.60;;;;;;;4.92;74.35;101221.91;4994197;28;20023;-50
2023/04/06 01:10:25;;;;;;;0.75;0.75;;;;;;;4.63;75.23;101224.19;4998501;28;20840;-48
2023/04/06 01:13:11;;;;;;;1.08;0.60;;;;;;;4.82;74.27;101224.03;5000141;28;20144;-50
2023/04/06 01:15:51;;;;;;;0.20;0.20;;;;;;;4.83;74.68;101218.41;5001258;28;20033;-61
2023/04/06 01:18:27;;;;;;;0.63;0.50;;;;;;;4.80;74.71;101224.31;4998959;28;20038;-53
2023/04/06 01:21:02;;;;;;;0.90;0.88;;;;;;;4.76;74.92;101219.91;5009008;28;20037;-53
2023/04/06 01:23:28;;;;;;;0.32;0.32;;;;;;;4.76;75.29;101218.03;5006692;28;20479;-55
2023/04/06 01:26:15;;;;;;;1.00;0.52;;;;;;;4.63;75.39;101207.41;5011507;28;20036;-47
2023/04/06 01:28:40;;;;;;;1.75;0.77;;;;;;;4.42;75.93;101207.03;4973839;28;20046;-49
2023/04/06 01:31:16;;;;;;;0.57;0.57;;;;;;;4.30;75.76;101207.56;4971722;28;20085;-48
2023/04/06 01:33:49;;;;;;;0.73;0.73;;;;;;;4.33;76.48;101214.19;4970488;28;20050;-46
2023/04/06 01:36:18;;;;;;;0.38;0.38;;;;;;;4.41;76.83;101202.81;4988626;28;20034;-52
2023/04/06 01:38:48;;;;;;;1.83;0.80;;;;;;;4.38;75.91;101209.53;4973066;28;20069;-52
2023/04/06 01:41:16;;;;;;;0.40;0.40;;;;;;;4.36;75.89;101208.25;4969895;28;20070;-54
2023/04/06 01:43:48;;;;;;;1.02;0.40;;;;;;;4.24;77.11;101208.00;4973527;28;20084;-49
2023/04/06 01:46:13;;;;;;;0.63;0.43;;;;;;;4.23;76.61;101203.72;4963758;28;20499;-51
2023/04/06 01:48:42;;;;;;;2.25;0.73;;;;;;;4.21;77.23;101200.56;4985609;28;20056;-53
2023/04/06 01:51:28;;;;;;;0.77;0.77;;;;;;;3.96;77.28;101201.09;4988121;28;20042;-52
2023/04/06 01:53:58;;;;;;;0.50;0.50;;;;;;;3.95;77.81;101197.63;4988064;28;20046;-48
2023/04/06 01:56:34;;;;;;;0.40;0.40;;;;;;;3.84;78.74;101192.78;4970942;28;20125;-55
2023/04/06 01:59:08;;;;;;;1.13;0.45;;;;;;;3.78;79.35;101191.31;4987311;28;20069;-48
2023/04/06 02:01:38;;;;;;;0.73;0.60;;;;;;;3.87;78.98;101189.56;4977855;28;20026;-49
2023/04/06 02:04:04;;;;;;;0.93;0.93;;;;;;;3.96;79.30;101187.78;4972463;28;20031;-46
2023/04/06 02:06:30;;;;;;;0.60;0.60;;;;;;;3.83;79.64;101188.56;4999905;28;20100;-53
2023/04/06 02:08:56;;;;;;;0.55;0.55;;;;;;;3.76;79.89;101190.81;5010234;28;20042;-49
2023/04/06 02:11:22;;;;;;;0.40;0.40;;;;;;;3.74;80.41;101182.34;5011741;28;20045;-49
2023/04/06 02:13:52;;;;;;;0.60;0.60;;;;;;;3.83;79.97;101184.03;5007447;28;20095;-47
2023/04/06 02:16:17;;;;;;;0.40;0.40;;;;;;;3.88;79.58;101185.78;5009367;28;20030;-51
2023/04/06 02:18:45;;;;;;;2.10;1.02;;;;;;;3.92;80.01;101182.25;5009403;28;20033;-46
2023/04/06 02:21:11;;;;;;;0.55;0.55;;;;;;;3.98;79.81;101181.06;5017761;28;20029;-46
2023/04/06 02:23:36;;;;;;;0.57;0.40;;;;;;;3.91;79.51;101175.34;4989174;28;20022;-57
2023/04/06 02:26:02;;;;;;;1.00;0.47;;;;;;;3.85;80.47;101176.53;5009279;28;20143;-52
2023/04/06 02:28:27;;;;;;;1.27;0.90;;;;;;;3.92;80.21;101176.13;5011071;28;20046;-56
2023/04/06 02:30:53;;;;;;;0.85;0.68;;;;;;;3.89;79.81;101169.50;5009351;28;20040;-52
2023/04/06 02:33:43;;;;;;;0.47;0.47;;;;;;;3.84;80.27;101174.16;5007883;28;20049;-50
2023/04/06 02:36:10;;;;;;;0.40;0.40;;;;;;;3.76;80.33;101172.97;4942552;28;20071;-56
2023/04/06 02:38:36;;;;;;;3.22;1.02;;;;;;;3.88;80.34;101175.13;4927199;29;20094;-46
2023/04/06 02:41:02;;;;;;;0.77;0.60;;;;;;;3.72;80.72;101176.53;4933473;29;20477;-46
2023/04/06 02:43:28;;;;;;;0.43;0.43;;;;;;;3.68;79.36;101177.13;4938974;28;20085;-57
2023/04/06 02:46:02;;;;;;;0.70;0.70;;;;;;;3.77;79.93;101179.09;4936137;29;20062;-49
2023/04/06 02:48:30;;;;;;;0.60;0.60;;;;;;;3.85;79.79;101181.88;4928881;29;20042;-46
2023/04/06 02:50:56;;;;;;;0.45;0.45;;;;;;;3.80;80.13;101179.28;4932288;29;20051;-46
2023/04/06 02:53:21;;;;;;;0.60;0.60;;;;;;;3.74;80.00;101180.47;4954196;28;20039;-47
2023/04/06 02:55:47;;;;;;;0.40;0.40;;;;;;;3.79;80.70;101184.91;4950019;28;20506;-61
2023/04/06 02:58:12;;;;;;;0.60;0.60;;;;;;;3.60;80.42;101180.47;4940894;28;20046;-51
2023/04/06 03:00:48;;;;;;;0.50;0.50;;;;;;;3.75;81.01;101176.72;4955770;28;20051;-47
2023/04/06 03:03:13;;;;;;;0.93;0.80;;;;;;;3.68;79.62;101184.31;4936441;28;20082;-50
2023/04/06 03:05:40;;;;;;;0.60;0.60;;;;;;;3.80;80.14;101181.94;4931471;29;20121;-46
2023/04/06 03:08:06;;;;;;;0.57;0.57;;;;;;;3.78;79.56;101175.34;4931567;29;20138;-49
2023/04/06 03:10:39;;;;;;;0.60;0.60;;;;;;;3.79;79.49;101172.41;4927305;29;20070;-48
2023/04/06 03:13:05;;;;;;;0.50;0.50;;;;;;;3.72;80.11;101177.31;4979200;28;20082;-49
2023/04/06 03:15:56;;;;;;;0.50;0.50;;;;;;;3.83;80.37;101183.25;5003387;28;20041;-46
2023/04/06 03:18:23;;;;;;;2.25;0.88;;;;;;;3.80;80.95;101189.16;5006390;28;20037;-54
2023/04/06 03:20:50;;;;;;;0.98;0.63;;;;;;;3.91;80.12;101183.31;5008319;28;20061;-55
2023/04/06 03:23:20;;;;;;;0.75;0.60;;;;;;;3.70;80.08;101179.47;5022934;28;20057;-55
2023/04/06 03:25:46;;;;;;;0.85;0.50;;;;;;;3.52;81.01;101177.72;5007405;28;20085;-57
2023/04/06 03:28:15;;;;;;;0.63;0.60;;;;;;;3.63;80.91;101176.44;5007461;28;20480;-54
2023/04/06 03:30:52;;;;;;;1.23;1.13;;;;;;;3.62;81.48;101186.28;5003586;28;20038;-47
2023/04/06 03:33:35;;;;;;;0.88;0.43;;;;;;;3.79;80.89;101180.38;5006429;28;20152;-61
2023/04/06 03:36:01;;;;;;;0.70;0.68;;;;;;;3.60;81.09;101174.38;5011645;28;20041;-52
2023/04/06 03:38:27;;;;;;;1.55;0.88;;;;;;;3.76;81.00;101178.31;5009554;28;20033;-49
2023/04/06 03:40:53;;;;;;;0.88;0.82;;;;;;;3.72;80.27;101181.88;5008543;28;20488;-54
2023/04/06 03:43:23;;;;;;;0.70;0.70;;;;;;;3.84;81.19;101190.13;5005396;28;20611;-53
2023/04/06 03:45:48;;;;;;;0.95;0.93;;;;;;;3.92;80.98;101190.25;4995610;28;20033;-52
2023/04/06 03:48:14;;;;;;;0.50;0.50;;;;;;;3.77;80.93;101179.91;5014838;28;20038;-55
2023/04/06 03:50:40;;;;;;;0.70;0.70;;;;;;;3.76;80.93;101186.28;4994077;28;20104;-50
2023/04/06 03:53:05;;;;;;;0.63;0.60;;;;;;;3.88;80.73;101183.94;5013213;28;20492;-51
2023/04/06 03:55:31;;;;;;;0.30;0.30;;;;;;;3.92;81.19;101189.44;5013052;28;20030;-52
2023/04/06 03:57:57;;;;;;;0.45;0.43;;;;;;;3.91;80.80;101185.97;5000198;28;20031;-49
2023/04/06 04:00:24;;;;;;;0.35;0.35;;;;;;;4.03;80.06;101193.47;5000490;28;20080;-53
2023/04/06 04:02:49;;;;;;;1.10;0.85;;;;;;;4.11;79.11;101196.25;5000063;28;20416;-55
2023/04/06 04:05:15;;;;;;;0.85;0.82;;;;;;;4.07;79.83;101189.94;5006927;28;20037;-54
2023/04/06 04:07:40;;;;;;;0.73;0.68;;;;;;;3.99;79.59;101200.50;5000583;28;20056;-55
2023/04/06 04:10:09;;;;;;;0.50;0.50;;;;;;;3.99;79.79;101198.63;5002735;28;20030;-56
2023/04/06 04:12:35;;;;;;;0.88;0.85;;;;;;;3.90;79.86;101189.75;5007013;28;20033;-55
2023/04/06 04:15:00;;;;;;;4.47;0.60;;;;;;;4.02;80.12;101197.25;4999509;28;20412;-50
2023/04/06 04:17:26;;;;;;;0.57;0.57;;;;;;;3.93;79.49;101193.69;5005192;28;20072;-51
2023/04/06 04:19:51;;;;;;;0.73;0.70;;;;;;;3.93;79.61;101191.81;5002550;28;20033;-53
2023/04/06 04:22:17;;;;;;;0.45;0.45;;;;;;;3.88;79.82;101197.25;4996060;28;20022;-55
2023/04/06 04:24:43;;;;;;;1.52;1.30;;;;;;;3.87;79.84;101198.31;5003212;28;20389;-56
2023/04/06 04:27:09;;;;;;;0.82;0.70;;;;;;;3.91;80.03;101198.53;5006150;28;20030;-55
2023/04/06 04:29:36;;;;;;;0.75;0.70;;;;;;;3.78;79.67;101199.31;5006549;28;20034;-56
2023/04/06 04:32:05;;;;;;;0.65;0.65;;;;;;;3.70;79.88;101202.69;5007937;28;20052;-55
2023/04/06 04:34:32;;;;;;;0.75;0.55;;;;;;;3.53;80.31;101198.72;5005481;28;20061;-52
2023/04/06 04:36:58;;;;;;;1.27;0.80;;;;;;;3.57;80.96;101205.03;5005291;28;20065;-56
2023/04/06 04:39:37;;;;;;;0.47;0.47;;;;;;;3.56;81.33;101208.00;4991287;28;20022;-56
2023/04/06 04:42:05;;;;;;;0.40;0.40;;;;;;;3.32;81.32;101202.81;5002981;28;20034;-54
2023/04/06 04:44:33;;;;;;;1.10;0.95;;;;;;;3.32;82.19;101202.00;5006505;28;20030;-52
2023/04/06 04:46:59;;;;;;;0.50;0.38;;;;;;;3.40;81.60;101204.81;5000848;28;20026;-54
2023/04/06 04:49:37;;;;;;;1.10;1.00;;;;;;;3.52;81.05;101210.41;5003315;28;20554;-52
2023/04/06 04:52:03;;;;;;;4.60;0.95;;;;;;;3.55;80.99;101209.84;5004644;28;20029;-57
2023/04/06 04:54:41;;;;;;;10.90;1.02;;;;;;;3.36;82.02;101201.16;5007118;28;20032;-56
2023/04/06 04:57:09;;;;;;;0.70;0.70;;;;;;;3.31;82.21;101203.09;5006374;28;20038;-54
2023/04/06 04:59:39;;;;;;;1.35;1.08;;;;;;;3.22;82.97;101208.31;5003965;28;20026;-50
2023/04/06 05:02:13;;;;;;;0.82;0.63;;;;;;;3.20;83.24;101196.34;5005761;28;20022;-51
2023/04/06 05:04:51;;;;;;;1.17;1.10;;;;;;;3.31;82.76;101203.88;5003575;28;20038;-54
2023/04/06 05:07:22;;;;;;;0.90;0.90;;;;;;;3.50;82.37;101201.94;5003616;28;20033;-53
2023/04/06 05:09:49;;;;;;;0.70;0.70;;;;;;;3.51;82.93;101213.38;5006141;28;20034;-55
2023/04/06 05:12:15;;;;;;;0.50;0.50;;;;;;;3.49;82.64;101210.22;5007130;28;20082;-55
2023/04/06 05:14:51;;;;;;;0.75;0.75;;;;;;;3.53;82.70;101209.34;5003619;28;20034;-54
2023/04/06 05:17:18;;;;;;;1.52;0.85;;;;;;;3.63;82.41;101206.50;5006749;28;20088;-52
2023/04/06 05:19:44;;;;;;;0.52;0.52;;;;;;;3.72;81.86;101203.16;5006139;28;20026;-54
2023/04/06 05:22:14;;;;;;;0.65;0.57;;;;;;;3.76;81.57;101217.44;5008067;28;20038;-56
2023/04/06 05:24:41;;;;;;;1.52;1.30;;;;;;;3.77;81.36;101209.19;5004512;28;20516;-56
2023/04/06 05:27:07;;;;;;;1.33;1.23;;;;;;;3.67;81.68;101204.84;5007206;28;20437;-54
2023/04/06 05:29:33;;;;;;;1.10;1.02;;;;;;;3.59;81.86;101212.72;5006238;28;20054;-52
2023/04/06 05:31:59;;;;;;;3.65;1.55;;;;;;;3.71;81.52;101206.91;5008054;28;20026;-54
2023/04/06 05:34:25;;;;;;;1.80;1.30;;;;;;;3.63;81.79;101211.03;4999440;28;20404;-48
2023/04/06 05:36:51;;;;;;;3.00;0.90;;;;;;;3.60;81.79;101207.09;5004962;28;20128;-51
2023/04/06 05:39:20;;;;;;;3.13;1.60;;;;;;;3.75;82.12;101207.91;5005839;28;20028;-49
2023/04/06 05:41:49;;;;;;;0.88;0.85;;;;;;;3.89;81.42;101209.47;5004174;28;20041;-50
2023/04/06 05:44:20;;;;;;;2.30;1.45;;;;;;;3.95;81.99;101207.50;5006224;28;20037;-51
2023/04/06 05:46:51;;;;;;;1.25;0.98;;;;;;;3.91;81.77;101206.53;5001497;28;20038;-52
2023/04/06 05:49:16;;;;;;;1.55;1.15;;;;;;;3.82;82.05;101202.97;4988967;28;20542;-54
2023/04/06 05:52:04;;;;;;;1.15;0.80;;;;;;;3.95;81.93;101200.28;5006798;28;20036;-52
2023/04/06 05:54:30;;;;;;;1.65;1.48;;;;;;;4.06;81.46;101208.88;4946508;28;20039;-53
2023/04/06 05:57:01;;;;;;;0.90;0.90;;;;;;;4.04;81.57;101205.72;4947622;28;20095;-50
2023/04/06 05:59:27;;;;;;;1.42;0.85;;;;;;;4.11;81.41;101217.56;4942307;28;20047;-53
2023/04/06 06:01:53;;;;;;;0.95;0.90;;;;;;;4.22;81.68;101212.81;4980387;28;20031;-51
2023/04/06 06:04:19;;;;;;;0.65;0.52;;;;;;;4.24;81.41;101206.09;4948165;28;20134;-52
2023/04/06 06:06:46;;;;;;;1.85;1.50;;;;;;;4.30;81.07;101215.56;4964890;28;20053;-52
2023/04/06 06:09:18;;;;;;;2.17;0.95;;;;;;;4.29;81.51;101210.53;4968085;28;20069;-54
2023/04/06 06:11:57;;;;;;;3.83;1.27;;;;;;;4.32;81.32;101209.91;4947675;28;20453;-52
2023/04/06 06:14:28;;;;;;;1.35;0.93;;;;;;;4.38;80.79;101212.19;4942609;28;20074;-52
2023/04/06 06:17:15;;;;;;;1.33;1.23;;;;;;;4.46;80.60;101219.50;4946421;28;20494;-50
2023/04/06 06:19:43;;;;;;;6.70;1.65;;;;;;;4.56;81.10;101213.16;4890840;29;20147;-51
2023/04/06 06:22:09;;;;;;;1.10;0.50;;;;;;;4.63;81.09;101218.06;4891378;29;20123;-51
2023/04/06 06:24:41;;;;;;;1.15;1.15;;;;;;;4.69;81.30;101214.97;4891777;29;20083;-53
2023/04/06 06:27:07;;;;;;;2.22;1.35;;;;;;;4.71;81.27;101212.78;4892585;29;20036;-51
2023/04/06 06:29:35;;;;;;;0.77;0.60;;;;;;;4.82;80.87;101216.81;4886704;29;20033;-52
2023/04/06 06:32:00;;;;;;;1.05;0.80;;;;;;;4.97;81.06;101219.13;4911667;29;20039;-53
2023/04/06 06:34:26;;;;;;;0.85;0.57;;;;;;;5.09;80.85;101210.59;4925247;29;20438;-54
2023/04/06 06:36:55;;;;;;;0.90;0.90;;;;;;;5.17;80.45;101212.50;4925033;29;20051;-51
2023/04/06 06:39:21;;;;;;;1.92;1.08;;;;;;;5.35;80.20;101217.66;4926238;29;20119;-55
2023/04/06 06:41:48;;;;;;;0.63;0.63;;;;;;;5.48;78.65;101222.13;4913524;29;20028;-53
2023/04/06 06:44:14;;;;;;;0.82;0.77;;;;;;;5.76;79.28;101213.91;4913440;29;20054;-50
2023/04/06 06:46:40;;;;;;;0.55;0.55;;;;;;;5.94;76.60;101219.03;4925238;29;20480;-50
2023/04/06 06:49:05;;;;;;;1.02;0.93;;;;;;;6.19;77.05;101217.56;4929437;29;20032;-51
2023/04/06 06:51:31;;;;;;;0.88;0.77;;;;;;;6.37;75.42;101216.47;4912558;29;20580;-50
2023/04/06 06:53:56;;;;;;;3.33;2.05;;;;;;;6.61;74.73;101221.41;4929468;29;20039;-49
2023/04/06 06:56:22;;;;;;;2.90;0.93;;;;;;;6.86;73.50;101218.72;4948770;28;20034;-48
2023/04/06 06:58:51;;;;;;;1.15;1.08;;;;;;;6.99;71.47;101220.44;4999773;28;20073;-47
2023/04/06 07:01:16;;;;;;;2.08;1.88;;;;;;;7.25;70.43;101213.19;5008232;28;20091;-53
2023/04/06 07:03:42;;;;;;;3.40;1.50;;;;;;;7.44;68.72;101220.06;5008074;28;20491;-49
2023/04/06 07:06:08;;;;;;;5.82;0.95;;;;;;;7.67;66.98;101224.09;5008151;28;20038;-51
2023/04/06 07:08:33;;;;;;;2.45;1.33;;;;;;;7.70;62.90;101213.53;5007132;28;20080;-54
2023/04/06 07:10:59;;;;;;;1.52;0.90;;;;;;;7.78;63.65;101214.59;5002852;28;20018;-47
2023/04/06 07:13:26;;;;;;;1.92;1.23;;;;;;;8.19;63.33;101225.44;5008014;28;20484;-52
2023/04/06 07:15:55;;;;;;;4.07;1.50;;;;;;;8.21;61.05;101215.94;5003911;28;20037;-49
2023/04/06 07:18:22;;;;;;;2.10;1.17;;;;;;;8.11;60.79;101216.31;5006394;28;20021;-55
2023/04/06 07:20:47;;;;;;;2.72;1.10;;;;;;;8.44;60.89;101218.38;5007489;28;20120;-48
2023/04/06 07:23:14;;;;;;;0.80;0.80;;;;;;;8.78;59.84;101226.97;5006547;28;20026;-51
2023/04/06 07:25:40;;;;;;;1.05;0.70;;;;;;;9.13;58.60;101223.97;5003503;28;20033;-54
2023/04/06 07:28:08;;;;;;;1.25;0.93;;;;;;;9.26;55.62;101218.31;5003408;28;20060;-52
2023/04/06 07:30:33;;;;;;;1.05;0.90;;;;;;;9.54;54.55;101221.94;5007083;28;20037;-50
2023/04/06 07:32:59;;;;;;;0.43;0.43;;;;;;;9.27;53.48;101221.78;5005297;28;20038;-47
2023/04/06 07:35:27;;;;;;;1.35;1.15;;;;;;;9.12;53.35;101215.13;5007013;28;20041;-54
2023/04/06 07:37:54;;;;;;;1.65;1.10;;;;;;;9.69;52.63;101218.63;5006376;28;20404;-52
2023/04/06 07:40:20;;;;;;;1.45;0.75;;;;;;;9.74;50.71;101225.69;5018856;28;20029;-50
2023/04/06 07:42:46;;;;;;;1.17;0.73;;;;;;;9.85;50.82;101213.38;4996258;28;20041;-49
2023/04/06 07:45:15;;;;;;;2.63;0.90;;;;;;;9.66;50.19;101223.88;5005892;28;20041;-49
2023/04/06 07:47:42;;;;;;;0.68;0.57;;;;;;;9.56;50.89;101213.56;5004837;28;20029;-50
2023/04/06 07:50:08;;;;;;;0.65;0.63;;;;;;;9.94;51.57;101214.84;5002727;28;20116;-49
2023/04/06 07:52:34;;;;;;;1.50;0.60;;;;;;;10.33;49.98;101218.78;5005585;28;20036;-48
2023/04/06 07:55:00;;;;;;;0.68;0.55;;;;;;;10.40;50.41;101216.28;5005008;28;20034;-50
2023/04/06 07:57:25;;;;;;;1.77;1.10;;;;;;;10.65;49.16;101206.22;5005046;28;20120;-54
2023/04/06 07:59:51;;;;;;;1.55;0.80;;;;;;;10.68;49.29;101214.41;5002344;28;20042;-53
2023/04/06 08:02:17;;;;;;;0.57;0.57;;;;;;;10.63;48.42;101211.97;4995541;28;20028;-53
2023/04/06 08:04:43;;;;;;;3.38;0.75;;;;;;;11.06;48.39;101213.16;5006738;28;20065;-51
2023/04/06 08:07:08;;;;;;;0.88;0.65;;;;;;;10.94;47.79;101210.53;5009393;28;20045;-47
2023/04/06 08:09:34;;;;;;;0.70;0.70;;;;;;;11.41;46.73;101216.81;5003434;28;20022;-51
2023/04/06 08:11:59;;;;;;;0.70;0.70;;;;;;;11.61;46.34;101210.41;5007863;28;20033;-55
2023/04/06 08:14:25;;;;;;;1.90;1.05;;;;;;;11.71;47.71;101221.47;5008189;28;20037;-53
2023/04/06 08:16:51;;;;;;;0.73;0.60;;;;;;;11.94;45.96;101212.78;5001765;28;20034;-52
2023/04/06 08:19:18;;;;;;;1.17;0.90;;;;;;;11.79;46.74;101207.03;5001810;28;20037;-51
2023/04/06 08:21:47;;;;;;;1.20;0.63;;;;;;;12.11;44.60;101213.19;5001027;28;20067;-54
2023/04/06 08:24:13;;;;;;;2.25;0.45;;;;;;;12.18;43.70;101216.03;5004017;28;20045;-54
2023/04/06 08:26:39;;;;;;;0.85;0.77;;;;;;;11.72;43.50;101209.56;5003225;28;20645;-51
2023/04/06 08:29:07;;;;;;;0.50;0.43;;;;;;;12.19;44.42;101209.53;5001850;28;20109;-52
2023/04/06 08:31:33;;;;;;;1.38;0.50;;;;;;;11.80;42.23;101213.22;5003306;28;20032;-51
2023/04/06 08:33:59;;;;;;;0.95;0.75;;;;;;;12.36;41.53;101211.84;5000124;28;20039;-51
2023/04/06 08:36:25;;;;;;;3.10;0.85;;;;;;;12.05;41.42;101209.19;5004212;28;20543;-53
2023/04/06 08:38:50;;;;;;;1.88;0.68;;;;;;;12.39;40.84;101207.63;5004986;28;20069;-51
2023/04/06 08:41:17;;;;;;;0.43;0.43;;;;;;;12.87;40.10;101203.63;4998445;28;20092;-53
2023/04/06 08:43:46;;;;;;;1.98;0.60;;;;;;;12.31;39.69;101206.69;5008584;28;20423;-53
2023/04/06 08:46:12;;;;;;;1.42;0.50;;;;;;;12.65;39.48;101205.91;4988563;28;20042;-53
2023/04/06 08:48:42;;;;;;;1.73;0.73;;;;;;;12.62;39.12;101205.81;4999506;28;20539;-53
2023/04/06 08:51:08;;;;;;;0.70;0.50;;;;;;;13.13;38.86;101214.56;4999709;28;20116;-54
2023/04/06 08:53:34;;;;;;;0.50;0.50;;;;;;;13.20;38.83;101203.91;5000972;28;20033;-48
2023/04/06 08:56:01;;;;;;;0.95;0.65;;;;;;;13.01;38.30;101212.00;5004614;28;20029;-54
2023/04/06 08:58:31;;;;;;;0.52;0.52;;;;;;;13.07;37.55;101213.31;5003327;28;20136;-55
2023/04/06 09:00:58;;;;;;;0.45;0.45;;;;;;;13.47;38.73;101216.38;5005972;28;20121;-53
2023/04/06 09:03:26;;;;;;;1.65;0.70;;;;;;;13.57;37.80;101207.66;5008605;28;20120;-54
2023/04/06 09:05:51;;;;;;;0.98;0.63;;;;;;;13.60;37.42;101217.78;5004973;28;20403;-54
2023/04/06 09:08:17;;;;;;;2.00;0.70;;;;;;;13.78;37.59;101218.06;5003850;28;20037;-55
2023/04/06 09:10:42;;;;;;;0.22;0.22;;;;;;;13.82;38.13;101208.09;5006118;28;20056;-54
2023/04/06 09:13:08;;;;;;;0.88;0.65;;;;;;;13.69;37.38;101199.34;5006023;28;20029;-54
2023/04/06 09:15:34;;;;;;;0.40;0.40;;;;;;;14.26;37.81;101190.97;4991951;28;21058;-55
2023/04/06 09:18:00;;;;;;;0.60;0.50;;;;;;;14.66;36.98;101192.28;4987867;28;20038;-48
2023/04/06 09:20:27;;;;;;;0.85;0.47;;;;;;;14.73;37.29;101195.84;4993452;28;20052;-54
2023/04/06 09:22:54;;;;;;;0.70;0.45;;;;;;;14.88;36.50;101200.31;4993774;28;20088;-55
2023/04/06 09:25:26;;;;;;;2.50;0.80;;;;;;;14.63;36.12;101203.88;4998352;28;20041;-50
2023/04/06 09:28:00;;;;;;;3.00;0.43;;;;;;;14.96;36.21;101201.94;4999401;28;20046;-50
2023/04/06 09:30:26;;;;;;;1.42;0.65;;;;;;;14.99;35.21;101190.34;5008241;28;20061;-51
2023/04/06 09:32:55;;;;;;;0.98;0.65;;;;;;;14.91;37.15;101188.72;5004382;28;20049;-51
2023/04/06 09:35:22;;;;;;;1.70;0.65;;;;;;;15.05;37.05;101188.88;5007618;28;20033;-51
2023/04/06 09:37:52;;;;;;;1.27;0.60;;;;;;;14.90;37.59;101184.44;5011967;28;20091;-49
2023/04/06 09:40:18;;;;;;;0.77;0.60;;;;;;;15.37;37.50;101181.81;5021290;23;20050;-57
2023/04/06 09:42:49;;;;;;;0.52;0.50;;;;;;;15.17;38.24;101172.34;4996797;28;20050;-57
2023/04/06 09:45:15;;;;;;;1.10;0.57;;;;;;;14.76;38.31;101161.78;4993546;28;20089;-56
2023/04/06 09:47:45;;;;;;;0.82;0.50;;;;;;;15.08;37.24;101173.75;5000383;28;20030;-56
2023/04/06 09:50:12;;;;;;;0.93;0.60;;;;;;;15.11;37.71;101179.25;4991405;28;20038;-56
2023/04/06 09:52:45;;;;;;;0.45;0.43;;;;;;;15.33;36.12;101172.06;4982604;28;20113;-56
2023/04/06 09:55:17;;;;;;;0.73;0.50;;;;;;;15.93;35.97;101167.19;5002044;28;20057;-56
2023/04/06 09:58:15;;;;;;;1.55;0.50;;;;;;;15.75;33.42;101167.06;4982452;28;20047;-57
2023/04/06 10:01:05;;;;;;;0.40;0.38;;;;;;;15.56;33.29;101167.28;4988776;28;20042;-61
2023/04/06 10:03:45;;;;;;;0.30;0.30;;;;;;;16.08;33.69;101177.78;5009347;28;20424;-57
2023/04/06 10:06:15;;;;;;;3.60;0.38;;;;;;;16.10;31.85;101180.88;5007117;28;20631;-57
2023/04/06 10:08:43;;;;;;;0.63;0.30;;;;;;;15.84;32.08;101159.34;5010130;28;20063;-56
2023/04/06 10:11:10;;;;;;;1.33;0.32;;;;;;;16.20;31.98;101161.13;5015110;28;20033;-57
2023/04/06 10:13:36;;;;;;;0.57;0.57;;;;;;;16.52;31.79;101172.19;5004215;28;20041;-57
2023/04/06 10:16:03;;;;;;;0.82;0.40;;;;;;;16.44;32.38;101162.41;5007530;28;20064;-59
2023/04/06 10:18:29;;;;;;;0.35;0.35;;;;;;;16.85;33.24;101160.28;5010303;28;20041;-59
2023/04/06 10:21:01;;;;;;;0.20;0.20;;;;;;;16.35;31.83;101148.41;5011004;28;20396;-58
2023/04/06 10:23:27;;;;;;;0.25;0.22;;;;;;;16.62;32.25;101155.16;5008967;28;20026;-58
2023/04/06 10:25:57;;;;;;;1.17;0.80;;;;;;;16.58;32.22;101159.00;4998868;28;20037;-59
2023/04/06 10:28:23;;;;;;;0.22;0.22;;;;;;;16.81;32.38;101159.47;5001073;28;20069;-56
2023/04/06 10:30:49;;;;;;;2.08;0.70;;;;;;;17.08;31.81;101168.88;5012685;28;20443;-58
2023/04/06 10:33:22;;;;;;;2.80;0.75;;;;;;;17.30;31.58;101170.50;5009561;28;20109;-59
2023/04/06 10:35:48;;;;;;;0.68;0.60;;;;;;;17.39;31.06;101164.66;5002988;28;20034;-59
2023/04/06 10:38:14;;;;;;;1.13;0.85;;;;;;;17.41;31.25;101160.38;5021041;28;20040;-57
2023/04/06 10:40:42;;;;;;;0.55;0.50;;;;;;;17.50;30.17;101166.25;4998481;28;20143;-57
2023/04/06 10:43:20;;;;;;;0.85;0.70;;;;;;;17.33;30.58;101164.25;4995038;28;20115;-57
2023/04/06 10:45:55;;;;;;;1.45;0.98;;;;;;;16.85;31.72;101163.00;4985528;28;20057;-56
2023/04/06 10:48:20;;;;;;;2.25;0.68;;;;;;;16.87;31.58;101149.78;4997224;28;20030;-58
2023/04/06 10:50:51;;;;;;;1.13;0.77;;;;;;;16.27;31.64;101155.75;4994476;28;20582;-58
2023/04/06 10:53:27;;;;;;;0.90;0.50;;;;;;;16.17;32.92;101153.75;4998868;28;20030;-57
2023/04/06 10:55:55;;;;;;;1.65;0.77;;;;;;;16.63;32.53;101147.75;5000207;28;20022;-59
2023/04/06 10:58:25;;;;;;;1.58;0.75;;;;;;;16.66;32.06;101144.28;5004325;28;20128;-57
2023/04/06 11:00:51;;;;;;;0.77;0.57;;;;;;;16.89;31.65;101136.59;5006517;28;20026;-57
2023/04/06 11:03:17;;;;;;;1.63;0.70;;;;;;;16.99;32.66;101152.16;5012496;28;20128;-58
2023/04/06 11:05:45;;;;;;;2.95;0.90;;;;;;;17.07;31.72;101153.72;5010340;28;20034;-60
2023/04/06 11:08:21;;;;;;;1.63;0.75;;;;;;;16.95;31.79;101146.72;5013068;28;20053;-56
2023/04/06 11:10:49;;;;;;;2.40;0.73;;;;;;;17.06;33.17;101141.28;5002914;28;20036;-59
2023/04/06 11:13:14;;;;;;;0.70;0.45;;;;;;;17.21;31.98;101142.09;5000110;28;20026;-58
2023/04/06 11:15:40;;;;;;;3.53;0.88;;;;;;;16.62;32.31;101132.63;4983986;28;20114;-60
2023/04/06 11:18:05;;;;;;;1.83;0.70;;;;;;;16.92;32.36;101131.13;4998393;28;20053;-59
2023/04/06 11:20:31;;;;;;;0.68;0.47;;;;;;;17.52;32.62;101135.88;4995126;28;20057;-58
2023/04/06 11:22:58;;;;;;;1.70;0.80;;;;;;;17.56;31.74;101140.19;5001718;28;20044;-57
2023/04/06 11:25:25;;;;;;;1.30;0.95;;;;;;;17.83;31.03;101135.09;4982694;28;20099;-59
2023/04/06 11:27:51;;;;;;;1.15;0.77;;;;;;;17.73;30.66;101133.94;4999313;28;20404;-58
2023/04/06 11:30:17;;;;;;;1.60;0.95;;;;;;;17.96;31.20;101149.88;4997668;28;20038;-59
2023/04/06 11:32:44;;;;;;;1.45;0.98;;;;;;;17.64;31.12;101149.91;4999643;28;20030;-58
2023/04/06 11:35:21;;;;;;;2.53;1.33;;;;;;;17.61;31.36;101123.47;4996668;28;20057;-60
2023/04/06 11:37:48;;;;;;;1.23;0.93;;;;;;;18.07;31.25;101117.91;4997456;28;20435;-58